sensor_id;sensor_type;location;lat;lon;timestamp;temperature;humidity
29663;DHT22;16578;53.266;7.920;2023-02-12T00:00:38;11.60;79.00
29663;DHT22;16578;53.266;7.920;2023-02-12T00:03:04;11.50;79.00
29663;DHT22;16578;53.266;7.920;2023-02-12T00:05:30;11.50;79.00
29663;DHT22;16578;53.266;7.920;2023-02-12T00:07:56;11.50;79.00
29663;DHT22;16578;53.266;7.920;2023-02-12T00:10:23;11.50;79.00
29663;DHT22;16578;53.266;7.920;2023-02-12T00:12:48;11.50;79.00
29663;DHT22;16578;53.266;7.920;2023-02-12T00:15:14;11.50;79.10
29663;DHT22;16578;53.266;7.920;2023-02-12T00:17:39;11.50;79.20
29663;DHT22;16578;53.266;7.920;2023-02-12T00:20:05;11.40;79.20
29663;DHT22;16578;53.266;7.920;2023-02-12T00:22:31;11.40;79.20
29663;DHT22;16578;53.266;7.920;2023-02-12T00:24:57;11.50;79.30
29663;DHT22;16578;53.266;7.920;2023-02-12T00:27:23;11.40;79.30
29663;DHT22;16578;53.266;7.920;2023-02-12T00:29:49;11.40;79.30
29663;DHT22;16578;53.266;7.920;2023-02-12T00:32:14;11.40;79.30
29663;DHT22;16578;53.266;7.920;2023-02-12T00:34:47;11.40;79.30
29663;DHT22;16578;53.266;7.920;2023-02-12T00:37:13;11.40;79.30
29663;DHT22;16578;53.266;7.920;2023-02-12T00:39:39;11.40;79.30
29663;DHT22;16578;53.266;7.920;2023-02-12T00:42:04;11.40;79.20
29663;DHT22;16578;53.266;7.920;2023-02-12T00:44:30;11.40;79.20
29663;DHT22;16578;53.266;7.920;2023-02-12T00:46:56;11.40;79.30
29663;DHT22;16578;53.266;7.920;2023-02-12T00:49:22;11.40;79.30
29663;DHT22;16578;53.266;7.920;2023-02-12T00:51:48;11.40;79.30
29663;DHT22;16578;53.266;7.920;2023-02-12T00:54:14;11.30;79.20
29663;DHT22;16578;53.266;7.920;2023-02-12T00:56:40;11.30;79.30
29663;DHT22;16578;53.266;7.920;2023-02-12T00:59:06;11.30;79.40
29663;DHT22;16578;53.266;7.920;2023-02-12T01:01:32;11.30;79.40
29663;DHT22;16578;53.266;7.920;2023-02-12T01:03:58;11.30;80.20
29663;DHT22;16578;53.266;7.920;2023-02-12T01:06:23;11.30;79.40
29663;DHT22;16578;53.266;7.920;2023-02-12T01:08:50;11.30;79.40
29663;DHT22;16578;53.266;7.920;2023-02-12T01:11:16;11.30;79.40
29663;DHT22;16578;53.266;7.920;2023-02-12T01:13:42;11.30;79.50
29663;DHT22;16578;53.266;7.920;2023-02-12T01:16:19;11.30;79.60
29663;DHT22;16578;53.266;7.920;2023-02-12T01:18:46;11.30;79.50
29663;DHT22;16578;53.266;7.920;2023-02-12T01:21:17;11.20;79.50
29663;DHT22;16578;53.266;7.920;2023-02-12T01:23:44;11.30;79.40
29663;DHT22;16578;53.266;7.920;2023-02-12T01:26:10;11.20;79.40
29663;DHT22;16578;53.266;7.920;2023-02-12T01:28:37;11.20;80.30
29663;DHT22;16578;53.266;7.920;2023-02-12T01:31:08;11.20;80.30
29663;DHT22;16578;53.266;7.920;2023-02-12T01:33:34;11.20;79.50
29663;DHT22;16578;53.266;7.920;2023-02-12T01:35:59;11.20;79.60
29663;DHT22;16578;53.266;7.920;2023-02-12T01:38:25;11.20;79.60
29663;DHT22;16578;53.266;7.920;2023-02-12T01:40:50;11.20;79.70
29663;DHT22;16578;53.266;7.920;2023-02-12T01:43:16;11.20;79.70
29663;DHT22;16578;53.266;7.920;2023-02-12T01:45:45;11.20;79.70
29663;DHT22;16578;53.266;7.920;2023-02-12T01:48:13;11.20;79.70
29663;DHT22;16578;53.266;7.920;2023-02-12T01:50:41;11.20;79.70
29663;DHT22;16578;53.266;7.920;2023-02-12T01:53:07;11.20;79.80
29663;DHT22;16578;53.266;7.920;2023-02-12T01:55:33;11.20;79.90
29663;DHT22;16578;53.266;7.920;2023-02-12T01:57:59;11.20;79.90
29663;DHT22;16578;53.266;7.920;2023-02-12T02:00:25;11.20;79.90
29663;DHT22;16578;53.266;7.920;2023-02-12T02:02:54;11.20;79.70
29663;DHT22;16578;53.266;7.920;2023-02-12T02:05:30;11.30;79.80
29663;DHT22;16578;53.266;7.920;2023-02-12T02:07:58;11.20;79.70
29663;DHT22;16578;53.266;7.920;2023-02-12T02:10:24;11.20;79.80
29663;DHT22;16578;53.266;7.920;2023-02-12T02:12:49;11.20;79.80
29663;DHT22;16578;53.266;7.920;2023-02-12T02:15:34;11.20;79.80
29663;DHT22;16578;53.266;7.920;2023-02-12T02:21:02;11.20;79.70
29663;DHT22;16578;53.266;7.920;2023-02-12T02:29:45;11.20;79.80
29663;DHT22;16578;53.266;7.920;2023-02-12T02:32:19;11.20;79.90
29663;DHT22;16578;53.266;7.920;2023-02-12T02:35:07;11.20;79.90
29663;DHT22;16578;53.266;7.920;2023-02-12T02:37:55;11.20;79.80
29663;DHT22;16578;53.266;7.920;2023-02-12T02:40:32;11.20;79.80
29663;DHT22;16578;53.266;7.920;2023-02-12T02:43:22;11.20;79.80
29663;DHT22;16578;53.266;7.920;2023-02-12T02:45:55;11.20;79.80
29663;DHT22;16578;53.266;7.920;2023-02-12T02:48:25;11.20;79.90
29663;DHT22;16578;53.266;7.920;2023-02-12T02:50:59;11.20;79.80
29663;DHT22;16578;53.266;7.920;2023-02-12T02:53:30;11.20;80.70
29663;DHT22;16578;53.266;7.920;2023-02-12T02:55:58;11.20;79.90
29663;DHT22;16578;53.266;7.920;2023-02-12T02:58:34;11.30;79.90
29663;DHT22;16578;53.266;7.920;2023-02-12T03:01:17;11.20;79.90
29663;DHT22;16578;53.266;7.920;2023-02-12T03:04:04;11.30;79.90
29663;DHT22;16578;53.266;7.920;2023-02-12T03:06:49;11.30;80.00
29663;DHT22;16578;53.266;7.920;2023-02-12T03:09:22;11.30;79.90
29663;DHT22;16578;53.266;7.920;2023-02-12T03:11:52;11.30;80.00
29663;DHT22;16578;53.266;7.920;2023-02-12T03:14:27;11.30;79.80
29663;DHT22;16578;53.266;7.920;2023-02-12T03:17:16;11.30;79.80
29663;DHT22;16578;53.266;7.920;2023-02-12T03:19:54;11.30;79.80
29663;DHT22;16578;53.266;7.920;2023-02-12T03:22:29;11.30;79.90
29663;DHT22;16578;53.266;7.920;2023-02-12T03:25:17;11.30;79.90
29663;DHT22;16578;53.266;7.920;2023-02-12T03:31:15;11.30;79.80
29663;DHT22;16578;53.266;7.920;2023-02-12T03:33:29;11.30;79.80
29663;DHT22;16578;53.266;7.920;2023-02-12T03:36:09;11.30;79.90
29663;DHT22;16578;53.266;7.920;2023-02-12T03:38:45;11.30;79.90
29663;DHT22;16578;53.266;7.920;2023-02-12T03:41:27;11.30;79.90
29663;DHT22;16578;53.266;7.920;2023-02-12T03:44:01;11.30;79.80
29663;DHT22;16578;53.266;7.920;2023-02-12T03:46:32;11.30;79.90
29663;DHT22;16578;53.266;7.920;2023-02-12T03:49:08;11.30;80.00
29663;DHT22;16578;53.266;7.920;2023-02-12T03:51:37;11.30;79.90
29663;DHT22;16578;53.266;7.920;2023-02-12T03:54:05;11.30;79.90
29663;DHT22;16578;53.266;7.920;2023-02-12T03:56:45;11.30;79.90
29663;DHT22;16578;53.266;7.920;2023-02-12T03:59:13;11.30;79.90
29663;DHT22;16578;53.266;7.920;2023-02-12T04:01:39;11.30;79.90
29663;DHT22;16578;53.266;7.920;2023-02-12T04:04:07;11.30;79.90
29663;DHT22;16578;53.266;7.920;2023-02-12T04:06:34;11.30;79.90
29663;DHT22;16578;53.266;7.920;2023-02-12T04:09:06;11.30;79.80
29663;DHT22;16578;53.266;7.920;2023-02-12T04:12:49;11.30;79.80
29663;DHT22;16578;53.266;7.920;2023-02-12T04:15:04;11.30;79.90
29663;DHT22;16578;53.266;7.920;2023-02-12T04:18:13;11.30;79.90
29663;DHT22;16578;53.266;7.920;2023-02-12T04:23:21;11.30;79.90
29663;DHT22;16578;53.266;7.920;2023-02-12T04:25:56;11.30;79.80
29663;DHT22;16578;53.266;7.920;2023-02-12T04:29:23;11.30;79.80
29663;DHT22;16578;53.266;7.920;2023-02-12T04:37:06;11.30;79.90
29663;DHT22;16578;53.266;7.920;2023-02-12T04:39:36;11.30;79.90
29663;DHT22;16578;53.266;7.920;2023-02-12T04:42:03;11.20;79.90
29663;DHT22;16578;53.266;7.920;2023-02-12T04:44:31;11.20;79.90
29663;DHT22;16578;53.266;7.920;2023-02-12T04:46:58;11.20;79.80
29663;DHT22;16578;53.266;7.920;2023-02-12T04:49:25;11.20;79.90
29663;DHT22;16578;53.266;7.920;2023-02-12T04:51:51;11.20;79.90
29663;DHT22;16578;53.266;7.920;2023-02-12T04:54:18;11.20;79.90
29663;DHT22;16578;53.266;7.920;2023-02-12T04:56:44;11.20;79.90
29663;DHT22;16578;53.266;7.920;2023-02-12T04:59:10;11.20;79.90
29663;DHT22;16578;53.266;7.920;2023-02-12T05:01:37;11.20;79.90
29663;DHT22;16578;53.266;7.920;2023-02-12T05:04:05;11.20;79.90
29663;DHT22;16578;53.266;7.920;2023-02-12T05:06:33;11.20;80.00
29663;DHT22;16578;53.266;7.920;2023-02-12T05:08:59;11.20;80.00
29663;DHT22;16578;53.266;7.920;2023-02-12T05:11:25;11.20;80.00
29663;DHT22;16578;53.266;7.920;2023-02-12T05:13:51;11.20;80.00
29663;DHT22;16578;53.266;7.920;2023-02-12T05:16:19;11.20;79.90
29663;DHT22;16578;53.266;7.920;2023-02-12T05:18:45;11.20;79.90
29663;DHT22;16578;53.266;7.920;2023-02-12T05:21:11;11.20;80.00
29663;DHT22;16578;53.266;7.920;2023-02-12T05:23:37;11.20;80.00
29663;DHT22;16578;53.266;7.920;2023-02-12T05:26:07;11.20;80.00
29663;DHT22;16578;53.266;7.920;2023-02-12T05:28:34;11.20;80.00
29663;DHT22;16578;53.266;7.920;2023-02-12T05:31:07;11.20;80.10
29663;DHT22;16578;53.266;7.920;2023-02-12T05:33:32;11.20;80.10
29663;DHT22;16578;53.266;7.920;2023-02-12T05:36:06;11.20;80.20
29663;DHT22;16578;53.266;7.920;2023-02-12T05:38:33;11.10;80.10
29663;DHT22;16578;53.266;7.920;2023-02-12T05:41:07;11.20;80.20
29663;DHT22;16578;53.266;7.920;2023-02-12T05:43:32;11.20;80.10
29663;DHT22;16578;53.266;7.920;2023-02-12T05:45:59;11.10;80.00
29663;DHT22;16578;53.266;7.920;2023-02-12T05:48:26;11.10;80.10
29663;DHT22;16578;53.266;7.920;2023-02-12T05:50:51;11.10;80.10
29663;DHT22;16578;53.266;7.920;2023-02-12T05:53:17;11.20;80.20
29663;DHT22;16578;53.266;7.920;2023-02-12T05:55:42;11.10;80.10
29663;DHT22;16578;53.266;7.920;2023-02-12T05:58:08;11.10;80.20
29663;DHT22;16578;53.266;7.920;2023-02-12T06:00:33;11.10;80.20
29663;DHT22;16578;53.266;7.920;2023-02-12T06:02:59;11.10;80.20
29663;DHT22;16578;53.266;7.920;2023-02-12T06:05:25;11.10;80.20
29663;DHT22;16578;53.266;7.920;2023-02-12T06:07:50;11.10;80.20
29663;DHT22;16578;53.266;7.920;2023-02-12T06:10:16;11.10;80.10
29663;DHT22;16578;53.266;7.920;2023-02-12T06:12:41;11.10;80.20
29663;DHT22;16578;53.266;7.920;2023-02-12T06:15:07;11.10;80.20
29663;DHT22;16578;53.266;7.920;2023-02-12T06:17:33;11.10;80.20
29663;DHT22;16578;53.266;7.920;2023-02-12T06:19:59;11.10;80.20
29663;DHT22;16578;53.266;7.920;2023-02-12T06:22:27;11.10;80.30
29663;DHT22;16578;53.266;7.920;2023-02-12T06:24:52;11.10;80.20
29663;DHT22;16578;53.266;7.920;2023-02-12T06:27:18;11.10;80.30
29663;DHT22;16578;53.266;7.920;2023-02-12T06:29:43;11.10;80.30
29663;DHT22;16578;53.266;7.920;2023-02-12T06:32:09;11.10;80.30
29663;DHT22;16578;53.266;7.920;2023-02-12T06:34:38;11.10;80.30
29663;DHT22;16578;53.266;7.920;2023-02-12T06:37:03;11.10;80.30
29663;DHT22;16578;53.266;7.920;2023-02-12T06:39:29;11.10;80.30
29663;DHT22;16578;53.266;7.920;2023-02-12T06:41:54;11.10;80.30
29663;DHT22;16578;53.266;7.920;2023-02-12T06:44:20;11.10;80.30
29663;DHT22;16578;53.266;7.920;2023-02-12T06:46:46;11.10;80.20
29663;DHT22;16578;53.266;7.920;2023-02-12T06:49:12;11.10;80.30
29663;DHT22;16578;53.266;7.920;2023-02-12T06:51:38;11.10;80.20
29663;DHT22;16578;53.266;7.920;2023-02-12T06:54:14;11.10;80.10
29663;DHT22;16578;53.266;7.920;2023-02-12T06:56:40;11.00;80.10
29663;DHT22;16578;53.266;7.920;2023-02-12T06:59:06;11.00;80.00
29663;DHT22;16578;53.266;7.920;2023-02-12T07:01:31;11.00;80.10
29663;DHT22;16578;53.266;7.920;2023-02-12T07:03:59;11.00;80.10
29663;DHT22;16578;53.266;7.920;2023-02-12T07:06:26;11.00;80.10
29663;DHT22;16578;53.266;7.920;2023-02-12T07:08:52;11.00;80.10
29663;DHT22;16578;53.266;7.920;2023-02-12T07:11:22;10.90;80.10
29663;DHT22;16578;53.266;7.920;2023-02-12T07:13:48;10.90;80.00
29663;DHT22;16578;53.266;7.920;2023-02-12T07:16:15;10.90;80.10
29663;DHT22;16578;53.266;7.920;2023-02-12T07:18:41;10.90;80.10
29663;DHT22;16578;53.266;7.920;2023-02-12T07:21:08;10.90;80.20
29663;DHT22;16578;53.266;7.920;2023-02-12T07:23:34;10.90;80.20
29663;DHT22;16578;53.266;7.920;2023-02-12T07:26:02;10.90;80.10
29663;DHT22;16578;53.266;7.920;2023-02-12T07:28:29;10.80;80.00
29663;DHT22;16578;53.266;7.920;2023-02-12T07:30:58;10.80;80.00
29663;DHT22;16578;53.266;7.920;2023-02-12T07:33:23;10.80;80.00
29663;DHT22;16578;53.266;7.920;2023-02-12T07:35:49;10.80;80.00
29663;DHT22;16578;53.266;7.920;2023-02-12T07:38:15;10.80;80.10
29663;DHT22;16578;53.266;7.920;2023-02-12T07:40:40;10.80;80.10
29663;DHT22;16578;53.266;7.920;2023-02-12T07:43:06;10.70;80.20
29663;DHT22;16578;53.266;7.920;2023-02-12T07:45:31;10.70;80.30
29663;DHT22;16578;53.266;7.920;2023-02-12T07:47:57;10.70;80.40
29663;DHT22;16578;53.266;7.920;2023-02-12T07:50:22;10.70;80.40
29663;DHT22;16578;53.266;7.920;2023-02-12T07:52:48;10.70;80.40
29663;DHT22;16578;53.266;7.920;2023-02-12T07:55:15;10.70;80.50
29663;DHT22;16578;53.266;7.920;2023-02-12T07:57:40;10.70;80.60
29663;DHT22;16578;53.266;7.920;2023-02-12T08:00:07;10.70;81.50
29663;DHT22;16578;53.266;7.920;2023-02-12T08:02:32;10.70;80.70
29663;DHT22;16578;53.266;7.920;2023-02-12T08:04:58;10.80;80.70
29663;DHT22;16578;53.266;7.920;2023-02-12T08:07:24;10.70;80.60
29663;DHT22;16578;53.266;7.920;2023-02-12T08:09:50;10.70;80.50
29663;DHT22;16578;53.266;7.920;2023-02-12T08:12:16;10.80;81.40
29663;DHT22;16578;53.266;7.920;2023-02-12T08:14:42;10.80;80.50
29663;DHT22;16578;53.266;7.920;2023-02-12T08:17:08;10.70;80.60
29663;DHT22;16578;53.266;7.920;2023-02-12T08:19:34;10.80;81.50
29663;DHT22;16578;53.266;7.920;2023-02-12T08:22:00;10.80;80.70
29663;DHT22;16578;53.266;7.920;2023-02-12T08:24:28;10.80;80.60
29663;DHT22;16578;53.266;7.920;2023-02-12T08:26:54;10.80;80.40
29663;DHT22;16578;53.266;7.920;2023-02-12T08:29:22;10.80;80.30
29663;DHT22;16578;53.266;7.920;2023-02-12T08:31:49;10.80;80.20
29663;DHT22;16578;53.266;7.920;2023-02-12T08:34:24;10.80;80.30
29663;DHT22;16578;53.266;7.920;2023-02-12T08:36:51;10.80;80.30
29663;DHT22;16578;53.266;7.920;2023-02-12T08:39:21;10.80;80.40
29663;DHT22;16578;53.266;7.920;2023-02-12T08:41:48;10.80;80.40
29663;DHT22;16578;53.266;7.920;2023-02-12T08:44:15;10.80;80.50
29663;DHT22;16578;53.266;7.920;2023-02-12T08:46:48;10.80;80.60
29663;DHT22;16578;53.266;7.920;2023-02-12T08:49:22;10.80;80.50
29663;DHT22;16578;53.266;7.920;2023-02-12T08:51:53;10.80;80.60
29663;DHT22;16578;53.266;7.920;2023-02-12T08:54:21;10.80;80.40
29663;DHT22;16578;53.266;7.920;2023-02-12T08:56:48;10.80;80.50
29663;DHT22;16578;53.266;7.920;2023-02-12T08:59:15;10.80;80.50
29663;DHT22;16578;53.266;7.920;2023-02-12T09:01:41;10.90;80.60
29663;DHT22;16578;53.266;7.920;2023-02-12T09:04:16;10.90;80.50
29663;DHT22;16578;53.266;7.920;2023-02-12T09:06:43;10.90;80.50
29663;DHT22;16578;53.266;7.920;2023-02-12T09:09:09;10.90;80.50
29663;DHT22;16578;53.266;7.920;2023-02-12T09:11:35;10.90;80.40
29663;DHT22;16578;53.266;7.920;2023-02-12T09:14:05;10.90;80.30
29663;DHT22;16578;53.266;7.920;2023-02-12T09:16:33;10.90;80.30
29663;DHT22;16578;53.266;7.920;2023-02-12T09:18:58;10.90;80.50
29663;DHT22;16578;53.266;7.920;2023-02-12T09:21:25;10.90;80.60
29663;DHT22;16578;53.266;7.920;2023-02-12T09:23:50;11.00;80.60
29663;DHT22;16578;53.266;7.920;2023-02-12T09:26:21;11.00;80.60
29663;DHT22;16578;53.266;7.920;2023-02-12T09:28:48;11.00;80.70
29663;DHT22;16578;53.266;7.920;2023-02-12T09:31:20;11.10;80.80
29663;DHT22;16578;53.266;7.920;2023-02-12T09:33:47;11.10;80.70
29663;DHT22;16578;53.266;7.920;2023-02-12T09:36:15;11.10;80.80
29663;DHT22;16578;53.266;7.920;2023-02-12T09:38:42;11.10;80.60
29663;DHT22;16578;53.266;7.920;2023-02-12T09:41:30;11.20;80.60
29663;DHT22;16578;53.266;7.920;2023-02-12T09:44:18;11.20;80.70
29663;DHT22;16578;53.266;7.920;2023-02-12T09:52:20;11.30;80.50
29663;DHT22;16578;53.266;7.920;2023-02-12T09:54:47;11.40;80.60
29663;DHT22;16578;53.266;7.920;2023-02-12T09:57:24;11.40;80.70
29663;DHT22;16578;53.266;7.920;2023-02-12T09:59:55;11.50;80.80
29663;DHT22;16578;53.266;7.920;2023-02-12T10:02:23;11.50;80.80
29663;DHT22;16578;53.266;7.920;2023-02-12T10:04:49;11.50;80.60
29663;DHT22;16578;53.266;7.920;2023-02-12T10:13:06;11.60;80.20
29663;DHT22;16578;53.266;7.920;2023-02-12T10:26:48;11.70;80.30
29663;DHT22;16578;53.266;7.920;2023-02-12T10:29:30;11.70;80.30
29663;DHT22;16578;53.266;7.920;2023-02-12T10:32:03;11.80;80.30
29663;DHT22;16578;53.266;7.920;2023-02-12T10:34:32;11.70;80.40
29663;DHT22;16578;53.266;7.920;2023-02-12T10:37:25;11.80;80.40
29663;DHT22;16578;53.266;7.920;2023-02-12T10:39:53;11.80;80.00
29663;DHT22;16578;53.266;7.920;2023-02-12T10:42:41;11.80;80.00
29663;DHT22;16578;53.266;7.920;2023-02-12T10:45:16;11.90;80.00
29663;DHT22;16578;53.266;7.920;2023-02-12T10:47:43;11.90;80.10
29663;DHT22;16578;53.266;7.920;2023-02-12T10:50:32;11.90;80.10
29663;DHT22;16578;53.266;7.920;2023-02-12T10:53:02;11.90;80.00
29663;DHT22;16578;53.266;7.920;2023-02-12T10:55:33;12.00;80.20
29663;DHT22;16578;53.266;7.920;2023-02-12T10:58:02;12.00;80.20
29663;DHT22;16578;53.266;7.920;2023-02-12T11:00:31;12.00;80.20
29663;DHT22;16578;53.266;7.920;2023-02-12T11:03:17;12.10;80.30
29663;DHT22;16578;53.266;7.920;2023-02-12T11:05:44;12.10;80.20
29663;DHT22;16578;53.266;7.920;2023-02-12T11:08:35;12.10;80.20
29663;DHT22;16578;53.266;7.920;2023-02-12T11:11:04;12.20;80.00
29663;DHT22;16578;53.266;7.920;2023-02-12T11:13:34;12.20;80.10
29663;DHT22;16578;53.266;7.920;2023-02-12T11:16:00;12.20;79.90
29663;DHT22;16578;53.266;7.920;2023-02-12T11:18:30;12.20;79.80
29663;DHT22;16578;53.266;7.920;2023-02-12T11:21:04;12.30;79.70
29663;DHT22;16578;53.266;7.920;2023-02-12T11:23:32;12.30;79.60
29663;DHT22;16578;53.266;7.920;2023-02-12T11:29:01;12.30;79.50
29663;DHT22;16578;53.266;7.920;2023-02-12T11:31:32;12.40;79.40
29663;DHT22;16578;53.266;7.920;2023-02-12T11:34:17;12.40;79.50
29663;DHT22;16578;53.266;7.920;2023-02-12T11:36:47;12.40;79.20
29663;DHT22;16578;53.266;7.920;2023-02-12T11:39:26;12.40;79.40
29663;DHT22;16578;53.266;7.920;2023-02-12T11:42:06;12.40;79.50
29663;DHT22;16578;53.266;7.920;2023-02-12T11:44:41;12.40;79.60
29663;DHT22;16578;53.266;7.920;2023-02-12T11:47:15;12.40;79.60
29663;DHT22;16578;53.266;7.920;2023-02-12T11:52:25;12.50;79.40
29663;DHT22;16578;53.266;7.920;2023-02-12T11:54:56;12.50;79.30
29663;DHT22;16578;53.266;7.920;2023-02-12T11:57:46;12.60;79.40
29663;DHT22;16578;53.266;7.920;2023-02-12T12:03:00;12.60;79.20
29663;DHT22;16578;53.266;7.920;2023-02-12T12:05:35;12.60;79.00
29663;DHT22;16578;53.266;7.920;2023-02-12T12:08:11;12.60;78.90
29663;DHT22;16578;53.266;7.920;2023-02-12T12:11:01;12.60;79.00
29663;DHT22;16578;53.266;7.920;2023-02-12T12:13:41;12.60;78.90
29663;DHT22;16578;53.266;7.920;2023-02-12T12:16:36;12.60;78.70
29663;DHT22;16578;53.266;7.920;2023-02-12T12:19:32;12.60;78.40
29663;DHT22;16578;53.266;7.920;2023-02-12T12:25:25;12.70;78.70
29663;DHT22;16578;53.266;7.920;2023-02-12T12:28:25;12.60;78.80
29663;DHT22;16578;53.266;7.920;2023-02-12T12:31:11;12.70;78.90
29663;DHT22;16578;53.266;7.920;2023-02-12T12:58:17;13.10;78.50
29663;DHT22;16578;53.266;7.920;2023-02-12T13:00:52;13.10;78.40
29663;DHT22;16578;53.266;7.920;2023-02-12T13:03:42;13.10;78.60
29663;DHT22;16578;53.266;7.920;2023-02-12T13:06:45;13.10;78.30
29663;DHT22;16578;53.266;7.920;2023-02-12T13:12:32;13.10;78.20
29663;DHT22;16578;53.266;7.920;2023-02-12T13:15:25;13.10;78.10
29663;DHT22;16578;53.266;7.920;2023-02-12T13:20:34;13.10;78.40
29663;DHT22;16578;53.266;7.920;2023-02-12T13:23:19;13.10;78.20
29663;DHT22;16578;53.266;7.920;2023-02-12T13:28:31;13.20;78.30
29663;DHT22;16578;53.266;7.920;2023-02-12T13:30:58;13.20;78.10
29663;DHT22;16578;53.266;7.920;2023-02-12T13:33:40;13.20;77.90
29663;DHT22;16578;53.266;7.920;2023-02-12T13:36:09;13.20;77.70
29663;DHT22;16578;53.266;7.920;2023-02-12T13:38:41;13.20;77.80
29663;DHT22;16578;53.266;7.920;2023-02-12T13:41:09;13.20;77.80
29663;DHT22;16578;53.266;7.920;2023-02-12T13:48:48;13.20;77.80
29663;DHT22;16578;53.266;7.920;2023-02-12T13:54:21;13.20;78.10
29663;DHT22;16578;53.266;7.920;2023-02-12T13:57:01;13.30;78.20
29663;DHT22;16578;53.266;7.920;2023-02-12T14:02:00;13.40;79.20
29663;DHT22;16578;53.266;7.920;2023-02-12T14:07:16;13.40;77.90
29663;DHT22;16578;53.266;7.920;2023-02-12T14:10:00;13.50;78.00
29663;DHT22;16578;53.266;7.920;2023-02-12T14:12:27;13.50;77.60
29663;DHT22;16578;53.266;7.920;2023-02-12T14:15:04;13.50;77.90
29663;DHT22;16578;53.266;7.920;2023-02-12T14:20:05;13.50;77.30
29663;DHT22;16578;53.266;7.920;2023-02-12T14:25:01;13.50;77.00
29663;DHT22;16578;53.266;7.920;2023-02-12T14:27:57;13.50;77.00
29663;DHT22;16578;53.266;7.920;2023-02-12T14:30:35;13.50;77.00
29663;DHT22;16578;53.266;7.920;2023-02-12T14:35:36;13.50;76.80
29663;DHT22;16578;53.266;7.920;2023-02-12T14:43:25;13.50;76.80
29663;DHT22;16578;53.266;7.920;2023-02-12T14:45:53;13.50;77.40
29663;DHT22;16578;53.266;7.920;2023-02-12T14:51:39;13.50;76.40
29663;DHT22;16578;53.266;7.920;2023-02-12T14:54:19;13.50;76.50
29663;DHT22;16578;53.266;7.920;2023-02-12T14:56:48;13.50;76.60
29663;DHT22;16578;53.266;7.920;2023-02-12T14:59:18;13.50;76.70
29663;DHT22;16578;53.266;7.920;2023-02-12T15:01:45;13.50;76.60
29663;DHT22;16578;53.266;7.920;2023-02-12T15:04:19;13.50;76.60
29663;DHT22;16578;53.266;7.920;2023-02-12T15:07:13;13.50;76.50
29663;DHT22;16578;53.266;7.920;2023-02-12T15:09:54;13.50;76.60
29663;DHT22;16578;53.266;7.920;2023-02-12T15:12:28;13.50;76.60
29663;DHT22;16578;53.266;7.920;2023-02-12T15:15:14;13.40;76.60
29663;DHT22;16578;53.266;7.920;2023-02-12T15:17:51;13.50;76.60
29663;DHT22;16578;53.266;7.920;2023-02-12T15:20:21;13.40;76.50
29663;DHT22;16578;53.266;7.920;2023-02-12T15:22:48;13.40;76.60
29663;DHT22;16578;53.266;7.920;2023-02-12T15:25:28;13.40;76.60
29663;DHT22;16578;53.266;7.920;2023-02-12T15:28:18;13.40;76.50
29663;DHT22;16578;53.266;7.920;2023-02-12T15:30:45;13.40;76.60
29663;DHT22;16578;53.266;7.920;2023-02-12T15:33:25;13.40;76.70
29663;DHT22;16578;53.266;7.920;2023-02-12T15:35:52;13.40;76.50
29663;DHT22;16578;53.266;7.920;2023-02-12T15:38:25;13.40;76.60
29663;DHT22;16578;53.266;7.920;2023-02-12T15:40:54;13.40;76.60
29663;DHT22;16578;53.266;7.920;2023-02-12T15:43:20;13.40;76.60
29663;DHT22;16578;53.266;7.920;2023-02-12T15:45:50;13.30;76.50
29663;DHT22;16578;53.266;7.920;2023-02-12T15:48:19;13.30;76.50
29663;DHT22;16578;53.266;7.920;2023-02-12T15:53:27;13.30;76.50
29663;DHT22;16578;53.266;7.920;2023-02-12T15:55:55;13.30;76.60
29663;DHT22;16578;53.266;7.920;2023-02-12T15:58:26;13.30;76.70
29663;DHT22;16578;53.266;7.920;2023-02-12T16:00:53;13.30;76.70
29663;DHT22;16578;53.266;7.920;2023-02-12T16:05:50;13.20;76.70
29663;DHT22;16578;53.266;7.920;2023-02-12T16:08:18;13.20;76.70
29663;DHT22;16578;53.266;7.920;2023-02-12T16:10:46;13.20;76.70
29663;DHT22;16578;53.266;7.920;2023-02-12T16:13:30;13.20;77.70
29663;DHT22;16578;53.266;7.920;2023-02-12T16:16:05;13.20;76.80
29663;DHT22;16578;53.266;7.920;2023-02-12T16:18:31;13.20;76.90
29663;DHT22;16578;53.266;7.920;2023-02-12T16:21:26;13.10;76.90
29663;DHT22;16578;53.266;7.920;2023-02-12T16:23:52;13.10;76.90
29663;DHT22;16578;53.266;7.920;2023-02-12T16:26:23;13.10;77.00
29663;DHT22;16578;53.266;7.920;2023-02-12T16:28:53;13.10;77.00
29663;DHT22;16578;53.266;7.920;2023-02-12T16:31:19;13.00;77.00
29663;DHT22;16578;53.266;7.920;2023-02-12T16:33:47;13.00;77.10
29663;DHT22;16578;53.266;7.920;2023-02-12T16:38:48;13.00;77.20
29663;DHT22;16578;53.266;7.920;2023-02-12T16:43:42;12.90;77.20
29663;DHT22;16578;53.266;7.920;2023-02-12T16:46:08;12.80;77.50
29663;DHT22;16578;53.266;7.920;2023-02-12T16:48:42;12.80;77.40
29663;DHT22;16578;53.266;7.920;2023-02-12T16:51:27;12.90;77.30
29663;DHT22;16578;53.266;7.920;2023-02-12T16:53:54;12.80;77.30
29663;DHT22;16578;53.266;7.920;2023-02-12T16:56:22;12.80;77.40
29663;DHT22;16578;53.266;7.920;2023-02-12T16:58:50;12.80;77.40
29663;DHT22;16578;53.266;7.920;2023-02-12T17:01:28;12.80;77.40
29663;DHT22;16578;53.266;7.920;2023-02-12T17:03:54;12.80;77.50
29663;DHT22;16578;53.266;7.920;2023-02-12T17:06:23;12.80;77.50
29663;DHT22;16578;53.266;7.920;2023-02-12T17:08:49;12.70;77.50
29663;DHT22;16578;53.266;7.920;2023-02-12T17:11:16;12.70;77.50
29663;DHT22;16578;53.266;7.920;2023-02-12T17:13:47;12.70;77.50
29663;DHT22;16578;53.266;7.920;2023-02-12T17:16:13;12.70;77.50
29663;DHT22;16578;53.266;7.920;2023-02-12T17:18:40;12.70;77.60
29663;DHT22;16578;53.266;7.920;2023-02-12T17:21:27;12.70;77.60
29663;DHT22;16578;53.266;7.920;2023-02-12T17:23:53;12.70;77.70
29663;DHT22;16578;53.266;7.920;2023-02-12T17:26:19;12.70;77.70
29663;DHT22;16578;53.266;7.920;2023-02-12T17:28:45;12.60;77.60
29663;DHT22;16578;53.266;7.920;2023-02-12T17:31:11;12.60;77.70
29663;DHT22;16578;53.266;7.920;2023-02-12T17:33:36;12.70;77.70
29663;DHT22;16578;53.266;7.920;2023-02-12T17:36:02;12.60;77.70
29663;DHT22;16578;53.266;7.920;2023-02-12T17:38:28;12.60;77.80
29663;DHT22;16578;53.266;7.920;2023-02-12T17:40:53;12.60;77.80
29663;DHT22;16578;53.266;7.920;2023-02-12T17:43:19;12.60;77.80
29663;DHT22;16578;53.266;7.920;2023-02-12T17:45:44;12.60;77.90
29663;DHT22;16578;53.266;7.920;2023-02-12T17:48:11;12.60;78.80
29663;DHT22;16578;53.266;7.920;2023-02-12T17:50:38;12.60;77.90
29663;DHT22;16578;53.266;7.920;2023-02-12T17:53:04;12.60;77.90
29663;DHT22;16578;53.266;7.920;2023-02-12T17:55:30;12.60;77.80
29663;DHT22;16578;53.266;7.920;2023-02-12T17:57:56;12.60;77.90
29663;DHT22;16578;53.266;7.920;2023-02-12T18:00:22;12.60;78.00